sensor_id;sensor_type;location;lat;lon;timestamp;pressure;altitude;pressure_sealevel;temperature;humidity
21877;BME280;11103;43.788;23.710;2023-02-17T00:00:00;146825.88;;;1.80;100.00
21877;BME280;11103;43.788;23.710;2023-02-17T00:02:25;146851.28;;;1.90;100.00
21877;BME280;11103;43.788;23.710;2023-02-17T00:04:51;146877.94;;;2.01;100.00
21877;BME280;11103;43.788;23.710;2023-02-17T00:07:17;146903.34;;;2.11;100.00
21877;BME280;11103;43.788;23.710;2023-02-17T00:09:43;146922.38;;;2.18;100.00
21877;BME280;11103;43.788;23.710;2023-02-17T00:12:08;146930.00;;;2.21;100.00
21877;BME280;11103;43.788;23.710;2023-02-17T00:14:34;146936.34;;;2.24;100.00
21877;BME280;11103;43.788;23.710;2023-02-17T00:16:59;146952.88;;;2.30;100.00
21877;BME280;11103;43.788;23.710;2023-02-17T00:19:24;146968.09;;;2.36;100.00
21877;BME280;11103;43.788;23.710;2023-02-17T00:21:55;146970.63;;;2.37;100.00
21877;BME280;11103;43.788;23.710;2023-02-17T00:24:24;146963.00;;;2.34;100.00
21877;BME280;11103;43.788;23.710;2023-02-17T00:26:50;146907.13;;;2.12;100.00
21877;BME280;11103;43.788;23.710;2023-02-17T00:29:16;146933.78;;;2.23;100.00
21877;BME280;11103;43.788;23.710;2023-02-17T00:31:42;146961.72;;;2.34;100.00
21877;BME280;11103;43.788;23.710;2023-02-17T00:34:07;146968.09;;;2.36;100.00
21877;BME280;11103;43.788;23.710;2023-02-17T00:36:33;146943.97;;;2.27;100.00
21877;BME280;11103;43.788;23.710;2023-02-17T00:38:58;146943.97;;;2.27;100.00
21877;BME280;11103;43.788;23.710;2023-02-17T00:41:27;146982.06;;;2.42;100.00
21877;BME280;11103;43.788;23.710;2023-02-17T00:43:53;146946.53;;;2.28;100.00
21877;BME280;11103;43.788;23.710;2023-02-17T00:46:19;146950.31;;;2.29;100.00
21877;BME280;11103;43.788;23.710;2023-02-17T00:48:45;146935.06;;;2.23;100.00
21877;BME280;11103;43.788;23.710;2023-02-17T00:51:11;146919.88;;;2.17;100.00
21877;BME280;11103;43.788;23.710;2023-02-17T00:53:37;146941.41;;;2.26;100.00
21877;BME280;11103;43.788;23.710;2023-02-17T00:56:03;146895.72;;;2.08;100.00
21877;BME280;11103;43.788;23.710;2023-02-17T00:58:29;146947.75;;;2.28;100.00
21877;BME280;11103;43.788;23.710;2023-02-17T01:00:55;146962.53;;;2.45;100.00
21877;BME280;11103;43.788;23.710;2023-02-17T01:03:21;146988.47;;;2.45;100.00
21877;BME280;11103;43.788;23.710;2023-02-17T01:05:47;147015.13;;;2.55;100.00
21877;BME280;11103;43.788;23.710;2023-02-17T01:08:13;146987.19;;;2.44;100.00
21877;BME280;11103;43.788;23.710;2023-02-17T01:10:41;146989.69;;;2.45;100.00
21877;BME280;11103;43.788;23.710;2023-02-17T01:13:07;146966.84;;;2.36;100.00
21877;BME280;11103;43.788;23.710;2023-02-17T01:15:44;146960.50;;;2.33;100.00
21877;BME280;11103;43.788;23.710;2023-02-17T01:18:10;146903.34;;;2.11;100.00
21877;BME280;11103;43.788;23.710;2023-02-17T01:20:37;146881.75;;;2.02;100.00
21877;BME280;11103;43.788;23.710;2023-02-17T01:23:04;146881.75;;;2.02;100.00
21877;BME280;11103;43.788;23.710;2023-02-17T01:25:30;146899.50;;;2.09;100.00
21877;BME280;11103;43.788;23.710;2023-02-17T01:27:56;146853.81;;;1.91;100.00
21877;BME280;11103;43.788;23.710;2023-02-17T01:30:22;146881.75;;;2.02;100.00
21877;BME280;11103;43.788;23.710;2023-02-17T01:32:47;146825.88;;;1.80;100.00
21877;BME280;11103;43.788;23.710;2023-02-17T01:35:13;146838.56;;;1.85;100.00
21877;BME280;11103;43.788;23.710;2023-02-17T01:37:39;146780.19;;;1.62;100.00
21877;BME280;11103;43.788;23.710;2023-02-17T01:40:05;146791.59;;;1.66;100.00
21877;BME280;11103;43.788;23.710;2023-02-17T01:42:30;146739.56;;;1.46;100.00
21877;BME280;11103;43.788;23.710;2023-02-17T01:47:57;144726.72;;;1.35;100.00
21877;BME280;11103;43.788;23.710;2023-02-17T01:50:30;139102.59;;;1.43;100.00
21877;BME280;11103;43.788;23.710;2023-02-17T01:52:57;133387.16;;;1.53;100.00
21877;BME280;11103;43.788;23.710;2023-02-17T01:55:24;132253.88;;;1.68;100.00
21877;BME280;11103;43.788;23.710;2023-02-17T01:57:53;131343.31;;;1.58;100.00
21877;BME280;11103;43.788;23.710;2023-02-17T02:00:21;130358.53;;;1.60;100.00
21877;BME280;11103;43.788;23.710;2023-02-17T02:02:49;128940.94;;;1.63;100.00
21877;BME280;11103;43.788;23.710;2023-02-17T02:05:17;127302.00;;;1.67;100.00
21877;BME280;11103;43.788;23.710;2023-02-17T02:07:44;127967.69;;;1.70;100.00
21877;BME280;11103;43.788;23.710;2023-02-17T02:10:12;127945.56;;;1.60;100.00
21877;BME280;11103;43.788;23.710;2023-02-17T02:12:39;127698.88;;;1.98;100.00
21877;BME280;11103;43.788;23.710;2023-02-17T02:15:26;128734.84;;;2.19;100.00
21877;BME280;11103;43.788;23.710;2023-02-17T02:32:29;146771.03;;;3.30;100.00
21877;BME280;11103;43.788;23.710;2023-02-17T02:35:05;147250.22;;;3.48;100.00
21877;BME280;11103;43.788;23.710;2023-02-17T02:37:42;147308.75;;;3.72;100.00
21877;BME280;11103;43.788;23.710;2023-02-17T02:40:11;147415.59;;;4.14;100.00
21877;BME280;11103;43.788;23.710;2023-02-17T02:42:39;147484.31;;;4.41;100.00
21877;BME280;11103;43.788;23.710;2023-02-17T02:45:07;147550.50;;;4.67;100.00
21877;BME280;11103;43.788;23.710;2023-02-17T02:50:06;147619.25;;;4.95;100.00
21877;BME280;11103;43.788;23.710;2023-02-17T02:57:54;147688.00;;;5.22;100.00
21877;BME280;11103;43.788;23.710;2023-02-17T03:03:02;147744.06;;;5.44;100.00
21877;BME280;11103;43.788;23.710;2023-02-17T03:05:55;147783.59;;;5.60;100.00
21877;BME280;11103;43.788;23.710;2023-02-17T03:08:30;147791.22;;;5.63;100.00
21877;BME280;11103;43.788;23.710;2023-02-17T03:10:59;147812.88;;;5.71;100.00
21877;BME280;11103;43.788;23.710;2023-02-17T03:13:25;147806.50;;;5.69;100.00
21877;BME280;11103;43.788;23.710;2023-02-17T03:15:50;147814.16;;;5.72;100.00
21877;BME280;11103;43.788;23.710;2023-02-17T03:18:16;147837.13;;;5.81;100.00
21877;BME280;11103;43.788;23.710;2023-02-17T03:20:48;147865.19;;;5.92;100.00
21877;BME280;11103;43.788;23.710;2023-02-17T03:23:15;147863.91;;;5.91;100.00
21877;BME280;11103;43.788;23.710;2023-02-17T03:25:40;147880.47;;;5.98;100.00
21877;BME280;11103;43.788;23.710;2023-02-17T03:28:06;147879.22;;;5.97;100.00
21877;BME280;11103;43.788;23.710;2023-02-17T03:30:31;147889.41;;;6.02;100.00
21877;BME280;11103;43.788;23.710;2023-02-17T03:32:57;147909.78;;;6.10;100.00
21877;BME280;11103;43.788;23.710;2023-02-17T03:35:22;147920.00;;;6.14;100.00
21877;BME280;11103;43.788;23.710;2023-02-17T03:37:47;147875.38;;;5.96;100.00
21877;BME280;11103;43.788;23.710;2023-02-17T03:40:13;147935.28;;;6.20;100.00
21877;BME280;11103;43.788;23.710;2023-02-17T03:42:38;147955.66;;;6.28;100.00
21877;BME280;11103;43.788;23.710;2023-02-17T03:45:04;147967.19;;;6.32;100.00
21877;BME280;11103;43.788;23.710;2023-02-17T03:47:30;147973.53;;;6.35;100.00
21877;BME280;11103;43.788;23.710;2023-02-17T03:49:55;147976.13;;;6.36;100.00
21877;BME280;11103;43.788;23.710;2023-02-17T03:52:21;148016.91;;;6.52;100.00
21877;BME280;11103;43.788;23.710;2023-02-17T03:54:47;148018.16;;;6.52;100.00
21877;BME280;11103;43.788;23.710;2023-02-17T03:57:12;148005.41;;;6.47;100.00
21877;BME280;11103;43.788;23.710;2023-02-17T03:59:38;148028.38;;;6.56;100.00
21877;BME280;11103;43.788;23.710;2023-02-17T04:02:03;148037.31;;;6.60;100.00
21877;BME280;11103;43.788;23.710;2023-02-17T04:04:28;148053.88;;;6.67;100.00
21877;BME280;11103;43.788;23.710;2023-02-17T04:06:54;148057.72;;;6.68;100.00
21877;BME280;11103;43.788;23.710;2023-02-17T04:09:19;148073.00;;;6.74;100.00
21877;BME280;11103;43.788;23.710;2023-02-17T04:11:45;148080.66;;;6.77;100.00
21877;BME280;11103;43.788;23.710;2023-02-17T04:14:10;148092.16;;;6.82;100.00
21877;BME280;11103;43.788;23.710;2023-02-17T04:16:36;148103.63;;;6.86;100.00
21877;BME280;11103;43.788;23.710;2023-02-17T04:19:04;148102.34;;;6.86;100.00
21877;BME280;11103;43.788;23.710;2023-02-17T04:21:30;148090.88;;;6.81;100.00
21877;BME280;11103;43.788;23.710;2023-02-17T04:23:55;148087.03;;;6.80;100.00
21877;BME280;11103;43.788;23.710;2023-02-17T04:26:21;148085.78;;;6.79;100.00
21877;BME280;11103;43.788;23.710;2023-02-17T04:28:46;148111.28;;;6.89;100.00
21877;BME280;11103;43.788;23.710;2023-02-17T04:31:12;148093.41;;;6.82;100.00
21877;BME280;11103;43.788;23.710;2023-02-17T04:33:37;148069.19;;;6.73;100.00
21877;BME280;11103;43.788;23.710;2023-02-17T04:36:03;148060.25;;;6.69;100.00
21877;BME280;11103;43.788;23.710;2023-02-17T04:38:30;148067.91;;;6.72;100.00
21877;BME280;11103;43.788;23.710;2023-02-17T04:40:58;148060.25;;;6.69;100.00
21877;BME280;11103;43.788;23.710;2023-02-17T04:43:25;148029.66;;;6.57;100.00
21877;BME280;11103;43.788;23.710;2023-02-17T04:45:50;148019.44;;;6.53;100.00
21877;BME280;11103;43.788;23.710;2023-02-17T04:48:16;147991.38;;;6.42;100.00
21877;BME280;11103;43.788;23.710;2023-02-17T04:50:42;148004.13;;;6.47;100.00
21877;BME280;11103;43.788;23.710;2023-02-17T04:53:07;147996.50;;;6.44;100.00
21877;BME280;11103;43.788;23.710;2023-02-17T04:55:33;147986.28;;;6.40;100.00
21877;BME280;11103;43.788;23.710;2023-02-17T04:57:59;147939.13;;;6.21;100.00
21877;BME280;11103;43.788;23.710;2023-02-17T05:00:24;147958.22;;;6.29;100.00
21877;BME280;11103;43.788;23.710;2023-02-17T05:02:50;147951.88;;;6.26;100.00
21877;BME280;11103;43.788;23.710;2023-02-17T05:05:15;147950.59;;;6.26;100.00
21877;BME280;11103;43.788;23.710;2023-02-17T05:07:43;147940.41;;;6.22;100.00
21877;BME280;11103;43.788;23.710;2023-02-17T05:10:09;147950.59;;;6.26;100.00
21877;BME280;11103;43.788;23.710;2023-02-17T05:12:35;147948.06;;;6.25;100.00
21877;BME280;11103;43.788;23.710;2023-02-17T05:15:01;147932.75;;;6.19;100.00
21877;BME280;11103;43.788;23.710;2023-02-17T05:17:26;147916.16;;;6.12;100.00
21877;BME280;11103;43.788;23.710;2023-02-17T05:19:52;147941.69;;;6.22;100.00
21877;BME280;11103;43.788;23.710;2023-02-17T05:22:17;147920.00;;;6.14;100.00
21877;BME280;11103;43.788;23.710;2023-02-17T05:24:43;147913.63;;;6.11;100.00
21877;BME280;11103;43.788;23.710;2023-02-17T05:27:08;147909.78;;;6.10;100.00
21877;BME280;11103;43.788;23.710;2023-02-17T05:29:34;147866.44;;;5.92;100.00
21877;BME280;11103;43.788;23.710;2023-02-17T05:31:59;147797.63;;;5.65;100.00
21877;BME280;11103;43.788;23.710;2023-02-17T05:34:24;147769.59;;;5.54;100.00
21877;BME280;11103;43.788;23.710;2023-02-17T05:36:50;147716.03;;;5.33;100.00
21877;BME280;11103;43.788;23.710;2023-02-17T05:39:15;147693.16;;;5.24;100.00
21877;BME280;11103;43.788;23.710;2023-02-17T05:41:41;147649.84;;;5.07;100.00
21877;BME280;11103;43.788;23.710;2023-02-17T05:44:06;147633.25;;;5.00;100.00
21877;BME280;11103;43.788;23.710;2023-02-17T05:46:31;147649.84;;;5.07;100.00
21877;BME280;11103;43.788;23.710;2023-02-17T05:48:57;147577.28;;;4.78;100.00
21877;BME280;11103;43.788;23.710;2023-02-17T05:51:22;147592.50;;;4.84;100.00
21877;BME280;11103;43.788;23.710;2023-02-17T05:53:48;147469.03;;;4.35;100.00
21877;BME280;11103;43.788;23.710;2023-02-17T05:56:13;147540.34;;;4.63;100.00
21877;BME280;11103;43.788;23.710;2023-02-17T05:58:38;147527.59;;;4.58;100.00
21877;BME280;11103;43.788;23.710;2023-02-17T06:01:08;147537.78;;;4.62;100.00
21877;BME280;11103;43.788;23.710;2023-02-17T06:03:34;147597.63;;;4.86;100.00
21877;BME280;11103;43.788;23.710;2023-02-17T06:06:00;147744.06;;;5.44;100.00
21877;BME280;11103;43.788;23.710;2023-02-17T06:08:25;147883.03;;;5.99;100.00
21877;BME280;11103;43.788;23.710;2023-02-17T06:10:54;148078.13;;;6.76;100.00
21877;BME280;11103;43.788;23.710;2023-02-17T06:13:20;148254.19;;;7.46;100.00
21877;BME280;11103;43.788;23.710;2023-02-17T06:15:46;148295.03;;;7.62;100.00
21877;BME280;11103;43.788;23.710;2023-02-17T06:18:11;148367.81;;;7.91;100.00
21877;BME280;11103;43.788;23.710;2023-02-17T06:20:37;148596.47;;;8.81;100.00
21877;BME280;11103;43.788;23.710;2023-02-17T06:23:02;148563.25;;;8.68;100.00
21877;BME280;11103;43.788;23.710;2023-02-17T06:25:28;148739.66;;;9.37;100.00
21877;BME280;11103;43.788;23.710;2023-02-17T06:27:53;148730.69;;;9.34;100.00
21877;BME280;11103;43.788;23.710;2023-02-17T06:30:19;148778.00;;;9.52;100.00
21877;BME280;11103;43.788;23.710;2023-02-17T06:32:45;148540.28;;;8.59;100.00
21877;BME280;11103;43.788;23.710;2023-02-17T06:35:11;148476.41;;;8.33;100.00
21877;BME280;11103;43.788;23.710;2023-02-17T06:37:37;148480.22;;;8.35;100.00
21877;BME280;11103;43.788;23.710;2023-02-17T06:40:03;148458.44;;;8.26;100.00
21877;BME280;11103;43.788;23.710;2023-02-17T06:42:29;148408.69;;;8.07;100.00
21877;BME280;11103;43.788;23.710;2023-02-17T06:44:54;148279.69;;;7.56;100.00
21877;BME280;11103;43.788;23.710;2023-02-17T06:47:20;148343.53;;;7.81;100.00
21877;BME280;11103;43.788;23.710;2023-02-17T06:49:45;148378.00;;;7.95;100.00
21877;BME280;11103;43.788;23.710;2023-02-17T06:52:11;148409.91;;;8.07;100.00
21877;BME280;11103;43.788;23.710;2023-02-17T06:54:36;148440.59;;;8.19;100.00
21877;BME280;11103;43.788;23.710;2023-02-17T06:57:01;148471.31;;;8.31;100.00
21877;BME280;11103;43.788;23.710;2023-02-17T06:59:27;148468.72;;;8.30;100.00
21877;BME280;11103;43.788;23.710;2023-02-17T07:01:52;148503.22;;;8.44;100.00
21877;BME280;11103;43.788;23.710;2023-02-17T07:04:18;148601.63;;;8.83;100.00
21877;BME280;11103;43.788;23.710;2023-02-17T07:06:43;148642.50;;;8.99;100.00
21877;BME280;11103;43.788;23.710;2023-02-17T07:09:09;148688.50;;;9.17;100.00
21877;BME280;11103;43.788;23.710;2023-02-17T07:11:37;148732.00;;;9.34;100.00
21877;BME280;11103;43.788;23.710;2023-02-17T07:14:03;148778.00;;;9.52;100.00
21877;BME280;11103;43.788;23.710;2023-02-17T07:16:28;148835.56;;;9.75;100.00
21877;BME280;11103;43.788;23.710;2023-02-17T07:18:54;148885.41;;;9.95;100.00
21877;BME280;11103;43.788;23.710;2023-02-17T07:21:19;148917.44;;;10.07;100.00
21877;BME280;11103;43.788;23.710;2023-02-17T07:23:44;148957.13;;;10.23;100.00
21877;BME280;11103;43.788;23.710;2023-02-17T07:26:10;148962.22;;;10.25;100.00
21877;BME280;11103;43.788;23.710;2023-02-17T07:28:37;148989.09;;;10.36;100.00
21877;BME280;11103;43.788;23.710;2023-02-17T07:31:09;149014.72;;;10.46;100.00
21877;BME280;11103;43.788;23.710;2023-02-17T07:33:34;149049.28;;;10.59;100.00
21877;BME280;11103;43.788;23.710;2023-02-17T07:36:08;149072.28;;;10.68;100.00
21877;BME280;11103;43.788;23.710;2023-02-17T07:38:34;149079.97;;;10.71;100.00
21877;BME280;11103;43.788;23.710;2023-02-17T07:41:08;149151.69;;;11.00;100.00
21877;BME280;11103;43.788;23.710;2023-02-17T07:43:34;149174.69;;;11.09;100.00
21877;BME280;11103;43.788;23.710;2023-02-17T07:45:59;149154.22;;;11.01;100.00
21877;BME280;11103;43.788;23.710;2023-02-17T07:48:25;149179.84;;;11.11;100.00
21877;BME280;11103;43.788;23.710;2023-02-17T07:50:50;149195.22;;;11.17;100.00
21877;BME280;11103;43.788;23.710;2023-02-17T07:53:16;149211.84;;;11.23;100.00
21877;BME280;11103;43.788;23.710;2023-02-17T07:55:41;149181.13;;;11.11;100.00
21877;BME280;11103;43.788;23.710;2023-02-17T07:58:06;149210.56;;;11.23;100.00
21877;BME280;11103;43.788;23.710;2023-02-17T08:00:32;149231.03;;;11.31;100.00
21877;BME280;11103;43.788;23.710;2023-02-17T08:02:57;149251.53;;;11.39;100.00
21877;BME280;11103;43.788;23.710;2023-02-17T08:05:23;149304.06;;;11.60;100.00
21877;BME280;11103;43.788;23.710;2023-02-17T08:07:48;149305.38;;;11.60;100.00
21877;BME280;11103;43.788;23.710;2023-02-17T08:10:36;149345.13;;;11.76;100.00
21877;BME280;11103;43.788;23.710;2023-02-17T08:13:20;149366.91;;;11.84;100.00
21877;BME280;11103;43.788;23.710;2023-02-17T08:15:46;149382.25;;;11.90;100.00
21877;BME280;11103;43.788;23.710;2023-02-17T08:18:11;149382.25;;;11.90;100.00
21877;BME280;11103;43.788;23.710;2023-02-17T08:20:37;149450.22;;;12.17;100.00
21877;BME280;11103;43.788;23.710;2023-02-17T08:23:02;149469.44;;;12.25;100.00
21877;BME280;11103;43.788;23.710;2023-02-17T08:25:31;149525.84;;;12.47;100.00
21877;BME280;11103;43.788;23.710;2023-02-17T08:27:57;149566.84;;;12.63;100.00
21877;BME280;11103;43.788;23.710;2023-02-17T08:30:23;149636.09;;;12.90;98.84
21877;BME280;11103;43.788;23.710;2023-02-17T08:32:48;149695.13;;;13.13;95.53
21877;BME280;11103;43.788;23.710;2023-02-17T08:35:14;149774.69;;;13.45;91.35
21877;BME280;11103;43.788;23.710;2023-02-17T08:37:40;149823.44;;;13.64;81.46
21877;BME280;11103;43.788;23.710;2023-02-17T08:40:06;149886.34;;;13.89;74.99
21877;BME280;11103;43.788;23.710;2023-02-17T08:42:32;149953.06;;;14.15;71.77
21877;BME280;11103;43.788;23.710;2023-02-17T08:44:57;149969.75;;;14.21;66.26
21877;BME280;11103;43.788;23.710;2023-02-17T08:47:23;150078.97;;;14.64;63.24
21877;BME280;11103;43.788;23.710;2023-02-17T08:49:48;150112.38;;;14.77;59.60
21877;BME280;11103;43.788;23.710;2023-02-17T08:52:14;150150.88;;;14.93;57.98
21877;BME280;11103;43.788;23.710;2023-02-17T08:54:39;150176.59;;;15.03;57.35
21877;BME280;11103;43.788;23.710;2023-02-17T08:57:05;150194.56;;;15.10;56.06
21877;BME280;11103;43.788;23.710;2023-02-17T08:59:30;150204.81;;;15.14;53.78
21877;BME280;11103;43.788;23.710;2023-02-17T09:01:56;150221.56;;;15.20;54.45
21877;BME280;11103;43.788;23.710;2023-02-17T09:04:21;150211.31;;;15.16;53.04
21877;BME280;11103;43.788;23.710;2023-02-17T09:06:52;150231.84;;;15.24;51.93
21877;BME280;11103;43.788;23.710;2023-02-17T09:09:20;150238.28;;;15.27;52.80
21877;BME280;11103;43.788;23.710;2023-02-17T09:11:51;150263.97;;;15.37;52.24
21877;BME280;11103;43.788;23.710;2023-02-17T09:14:19;150254.94;;;15.33;51.79
21877;BME280;11103;43.788;23.710;2023-02-17T09:16:48;150296.13;;;15.49;50.82
21877;BME280;11103;43.788;23.710;2023-02-17T09:19:14;150342.44;;;15.68;50.60
21877;BME280;11103;43.788;23.710;2023-02-17T09:21:39;150347.56;;;15.70;49.89
21877;BME280;11103;43.788;23.710;2023-02-17T09:24:05;150350.16;;;15.71;49.60
21877;BME280;11103;43.788;23.710;2023-02-17T09:26:30;150360.41;;;15.75;49.44
21877;BME280;11103;43.788;23.710;2023-02-17T09:28:56;150369.41;;;15.78;49.95
21877;BME280;11103;43.788;23.710;2023-02-17T09:31:25;150330.84;;;15.63;49.58
21877;BME280;11103;43.788;23.710;2023-02-17T09:33:50;150387.41;;;15.85;48.79
21877;BME280;11103;43.788;23.710;2023-02-17T09:36:22;150401.53;;;15.91;49.82
21877;BME280;11103;43.788;23.710;2023-02-17T09:38:49;150368.13;;;15.78;48.00
21877;BME280;11103;43.788;23.710;2023-02-17T09:41:20;150392.53;;;15.87;47.68
21877;BME280;11103;43.788;23.710;2023-02-17T09:43:47;150392.53;;;15.87;47.69
21877;BME280;11103;43.788;23.710;2023-02-17T09:46:23;150396.41;;;15.89;47.70
21877;BME280;11103;43.788;23.710;2023-02-17T09:48:50;150387.41;;;15.85;48.21
21877;BME280;11103;43.788;23.710;2023-02-17T09:51:21;150393.84;;;15.88;48.61
21877;BME280;11103;43.788;23.710;2023-02-17T09:56:21;150401.53;;;15.91;48.02
21877;BME280;11103;43.788;23.710;2023-02-17T09:58:52;150424.72;;;16.00;48.53
21877;BME280;11103;43.788;23.710;2023-02-17T10:01:28;150445.28;;;16.08;48.11
21877;BME280;11103;43.788;23.710;2023-02-17T10:06:54;150456.84;;;16.13;47.81
21877;BME280;11103;43.788;23.710;2023-02-17T10:09:36;150496.69;;;16.28;49.11
21877;BME280;11103;43.788;23.710;2023-02-17T10:12:14;150579.06;;;16.60;49.83
21877;BME280;11103;43.788;23.710;2023-02-17T10:17:34;150598.41;;;16.68;45.15
21877;BME280;11103;43.788;23.710;2023-02-17T10:20:06;150562.38;;;16.54;45.01
21877;BME280;11103;43.788;23.710;2023-02-17T10:22:32;150579.06;;;16.60;45.01
21877;BME280;11103;43.788;23.710;2023-02-17T10:25:00;150608.66;;;16.72;45.27
21877;BME280;11103;43.788;23.710;2023-02-17T10:27:36;150635.69;;;16.83;44.76
21877;BME280;11103;43.788;23.710;2023-02-17T10:35:53;150703.88;;;17.09;44.63
21877;BME280;11103;43.788;23.710;2023-02-17T10:38:44;150724.50;;;17.17;41.70
21877;BME280;11103;43.788;23.710;2023-02-17T10:41:14;150687.16;;;17.03;41.14
21877;BME280;11103;43.788;23.710;2023-02-17T10:43:43;150743.81;;;17.25;41.64
21877;BME280;11103;43.788;23.710;2023-02-17T10:46:11;150782.41;;;17.40;42.13
21877;BME280;11103;43.788;23.710;2023-02-17T10:48:39;150766.94;;;17.34;42.54
21877;BME280;11103;43.788;23.710;2023-02-17T10:51:05;150727.06;;;17.18;42.41
21877;BME280;11103;43.788;23.710;2023-02-17T10:53:33;150756.66;;;17.30;42.72
21877;BME280;11103;43.788;23.710;2023-02-17T10:56:08;150803.00;;;17.48;42.50
21877;BME280;11103;43.788;23.710;2023-02-17T11:01:04;150886.75;;;17.81;42.60
21877;BME280;11103;43.788;23.710;2023-02-17T11:03:31;150849.44;;;17.66;41.96
21877;BME280;11103;43.788;23.710;2023-02-17T11:06:02;150879.00;;;17.78;42.76
21877;BME280;11103;43.788;23.710;2023-02-17T11:11:05;150907.34;;;17.89;43.51
21877;BME280;11103;43.788;23.710;2023-02-17T11:13:37;150837.81;;;17.62;43.79
21877;BME280;11103;43.788;23.710;2023-02-17T11:16:05;150712.88;;;17.13;45.01
21877;BME280;11103;43.788;23.710;2023-02-17T11:18:33;150721.91;;;17.16;46.21
21877;BME280;11103;43.788;23.710;2023-02-17T11:21:10;150736.06;;;17.22;45.70
21877;BME280;11103;43.788;23.710;2023-02-17T11:23:47;150702.63;;;17.09;45.71
21877;BME280;11103;43.788;23.710;2023-02-17T11:26:21;150653.72;;;16.90;46.01
21877;BME280;11103;43.788;23.710;2023-02-17T11:28:47;150635.69;;;16.83;46.28
21877;BME280;11103;43.788;23.710;2023-02-17T11:31:27;150593.22;;;16.66;46.29
21877;BME280;11103;43.788;23.710;2023-02-17T11:33:53;150591.97;;;16.65;46.75
21877;BME280;11103;43.788;23.710;2023-02-17T11:36:29;150550.75;;;16.49;47.55
21877;BME280;11103;43.788;23.710;2023-02-17T11:38:55;150554.59;;;16.51;48.17
21877;BME280;11103;43.788;23.710;2023-02-17T11:41:22;150573.91;;;16.58;47.34
21877;BME280;11103;43.788;23.710;2023-02-17T11:43:56;150576.53;;;16.59;46.76
21877;BME280;11103;43.788;23.710;2023-02-17T11:57:34;150558.44;;;16.52;45.38
21877;BME280;11103;43.788;23.710;2023-02-17T12:00:14;150519.84;;;16.37;45.28
21877;BME280;11103;43.788;23.710;2023-02-17T12:24:31;150676.84;;;16.99;47.52
21877;BME280;11103;43.788;23.710;2023-02-17T12:29:55;150745.09;;;17.25;44.21
21877;BME280;11103;43.788;23.710;2023-02-17T12:35:09;150826.25;;;17.57;43.98
21877;BME280;11103;43.788;23.710;2023-02-17T12:37:47;150871.28;;;17.75;42.69
21877;BME280;11103;43.788;23.710;2023-02-17T12:40:30;150902.19;;;17.87;41.48
21877;BME280;11103;43.788;23.710;2023-02-17T12:43:00;150936.97;;;18.01;41.10
21877;BME280;11103;43.788;23.710;2023-02-17T12:45:42;150970.44;;;18.14;41.46
21877;BME280;11103;43.788;23.710;2023-02-17T12:51:16;150913.78;;;17.92;40.19
21877;BME280;11103;43.788;23.710;2023-02-17T12:53:48;150850.66;;;17.67;40.54
21877;BME280;11103;43.788;23.710;2023-02-17T12:58:51;150721.91;;;17.16;43.14
21877;BME280;11103;43.788;23.710;2023-02-17T13:01:20;150730.94;;;17.20;43.43
21877;BME280;11103;43.788;23.710;2023-02-17T13:03:46;150785.00;;;17.41;43.37
21877;BME280;11103;43.788;23.710;2023-02-17T13:06:29;150795.25;;;17.45;43.33
21877;BME280;11103;43.788;23.710;2023-02-17T13:09:27;150766.94;;;17.34;42.75
21877;BME280;11103;43.788;23.710;2023-02-17T13:12:16;150728.34;;;17.19;42.73
21877;BME280;11103;43.788;23.710;2023-02-17T13:14:53;150720.63;;;17.16;43.92
21877;BME280;11103;43.788;23.710;2023-02-17T13:17:23;150707.75;;;17.11;44.50
21877;BME280;11103;43.788;23.710;2023-02-17T13:20:03;150643.41;;;16.86;44.76
21877;BME280;11103;43.788;23.710;2023-02-17T13:22:29;150756.66;;;17.30;45.26
21877;BME280;11103;43.788;23.710;2023-02-17T13:24:54;150769.53;;;17.35;44.91
21877;BME280;11103;43.788;23.710;2023-02-17T13:30:06;150818.50;;;17.54;43.84
21877;BME280;11103;43.788;23.710;2023-02-17T13:32:35;150846.84;;;17.65;43.35
21877;BME280;11103;43.788;23.710;2023-02-17T13:37:42;150882.91;;;17.79;41.76
21877;BME280;11103;43.788;23.710;2023-02-17T13:42:47;150897.06;;;17.85;40.50
21877;BME280;11103;43.788;23.710;2023-02-17T13:47:40;150907.34;;;17.89;40.35
21877;BME280;11103;43.788;23.710;2023-02-17T13:52:49;150787.53;;;17.42;39.99
21877;BME280;11103;43.788;23.710;2023-02-17T13:55:17;150877.72;;;17.77;39.77
21877;BME280;11103;43.788;23.710;2023-02-17T13:57:44;150846.84;;;17.65;38.97
21877;BME280;11103;43.788;23.710;2023-02-17T14:00:21;150893.16;;;17.83;40.17
21877;BME280;11103;43.788;23.710;2023-02-17T14:02:49;150888.03;;;17.81;41.38
21877;BME280;11103;43.788;23.710;2023-02-17T14:05:19;150884.19;;;17.80;41.25
21877;BME280;11103;43.788;23.710;2023-02-17T14:07:46;150885.44;;;17.80;41.45
21877;BME280;11103;43.788;23.710;2023-02-17T14:10:23;150888.03;;;17.81;41.51
21877;BME280;11103;43.788;23.710;2023-02-17T14:12:50;150876.47;;;17.77;41.37
21877;BME280;11103;43.788;23.710;2023-02-17T14:15:18;150903.50;;;17.88;41.42
21877;BME280;11103;43.788;23.710;2023-02-17T14:17:43;150882.91;;;17.79;41.07
21877;BME280;11103;43.788;23.710;2023-02-17T14:23:07;150889.34;;;17.82;41.56
21877;BME280;11103;43.788;23.710;2023-02-17T14:25:41;150893.16;;;17.83;41.05
21877;BME280;11103;43.788;23.710;2023-02-17T14:28:26;150845.53;;;17.65;40.98